Time;durP1;ratioP1;P1;durP2;ratioP2;P2;SDS_P1;SDS_P2;PMS_P1;PMS_P2;Temp;Humidity;BMP_temperature;BMP_pressure;BME280_temperature;BME280_humidity;BME280_pressure;Samples;Min_cycle;Max_cycle;Signal;HPM_P1;HPM_P2
2023/05/13 00:01:52;;;;;;;6.85;4.43;;;;;;;;;;5026053;28;99467;-78
2023/05/13 00:04:18;;;;;;;14.60;4.70;;;;;;;;;;5026745;28;98536;-78
2023/05/13 00:06:45;;;;;;;4.47;4.18;;;;;;;;;;5022213;28;99257;-78
2023/05/13 00:09:11;;;;;;;8.15;4.25;;;;;;;;;;5005482;28;99984;-78
2023/05/13 00:11:38;;;;;;;11.82;4.68;;;;;;;;;;5004696;28;98951;-78
2023/05/13 00:14:05;;;;;;;4.60;4.05;;;;;;;;;;5004838;28;100227;-79
2023/05/13 00:16:31;;;;;;;7.75;3.92;;;;;;;;;;5004785;28;100257;-77
2023/05/13 00:18:58;;;;;;;5.85;4.18;;;;;;;;;;5022661;28;100599;-77
2023/05/13 00:21:24;;;;;;;9.15;4.20;;;;;;;;;;5024682;28;100573;-78
2023/05/13 00:23:50;;;;;;;5.03;4.60;;;;;;;;;;5023125;28;99881;-79
2023/05/13 00:26:17;;;;;;;7.70;4.75;;;;;;;;;;5024940;28;99946;-79
2023/05/13 00:28:46;;;;;;;5.47;4.97;;;;;;;;;;5027266;28;99494;-77
2023/05/13 00:31:13;;;;;;;4.70;4.38;;;;;;;;;;5006995;28;99065;-78
2023/05/13 00:33:39;;;;;;;7.78;4.80;;;;;;;;;;5025705;28;98434;-78
2023/05/13 00:36:08;;;;;;;8.73;4.47;;;;;;;;;;5006399;28;101820;-79
2023/05/13 00:38:35;;;;;;;5.30;4.80;;;;;;;;;;5024201;28;99343;-77
2023/05/13 00:41:01;;;;;;;7.95;4.28;;;;;;;;;;5024408;28;99196;-78
2023/05/13 00:43:28;;;;;;;7.68;5.30;;;;;;;;;;5006012;28;101981;-78
2023/05/13 00:45:55;;;;;;;5.95;5.15;;;;;;;;;;5025690;28;99448;-78
2023/05/13 00:48:23;;;;;;;6.68;4.63;;;;;;;;;;5024213;28;99470;-77
2023/05/13 00:50:50;;;;;;;5.68;5.28;;;;;;;;;;5028043;28;100243;-79
2023/05/13 00:53:16;;;;;;;6.18;5.07;;;;;;;;;;5006336;28;99640;-78
2023/05/13 00:55:44;;;;;;;6.45;4.80;;;;;;;;;;5024577;28;100209;-79
2023/05/13 00:58:10;;;;;;;5.65;5.00;;;;;;;;;;5025019;28;98917;-79
2023/05/13 01:00:45;;;;;;;6.95;5.00;;;;;;;;;;5024935;28;100062;-78
2023/05/13 01:03:15;;;;;;;7.25;4.80;;;;;;;;;;5023891;28;99340;-77
2023/05/13 01:05:42;;;;;;;8.02;4.93;;;;;;;;;;5006465;28;99341;-79
2023/05/13 01:08:11;;;;;;;6.38;5.03;;;;;;;;;;5006522;28;100442;-79
2023/05/13 01:10:43;;;;;;;7.68;5.30;;;;;;;;;;5008078;28;99639;-78
2023/05/13 01:13:11;;;;;;;6.07;5.28;;;;;;;;;;5004720;28;99810;-79
2023/05/13 01:15:39;;;;;;;6.97;5.30;;;;;;;;;;5005120;28;99045;-78
2023/05/13 01:18:08;;;;;;;5.28;4.97;;;;;;;;;;5004323;28;99125;-78
2023/05/13 01:20:37;;;;;;;7.63;5.20;;;;;;;;;;5006945;28;100217;-77
2023/05/13 01:23:05;;;;;;;10.43;5.38;;;;;;;;;;5009242;28;98913;-78
2023/05/13 01:25:31;;;;;;;7.35;5.13;;;;;;;;;;4989431;28;100899;-78
2023/05/13 01:27:59;;;;;;;6.15;5.13;;;;;;;;;;5007270;28;101268;-78
2023/05/13 01:30:26;;;;;;;8.35;5.75;;;;;;;;;;4989520;28;100953;-78
2023/05/13 01:32:52;;;;;;;5.70;5.32;;;;;;;;;;4992880;28;102693;-78
2023/05/13 01:35:19;;;;;;;5.55;5.15;;;;;;;;;;5007970;28;98900;-79
2023/05/13 01:37:47;;;;;;;5.70;5.20;;;;;;;;;;5008466;28;98668;-77
2023/05/13 01:40:14;;;;;;;8.32;5.78;;;;;;;;;;5006382;28;101720;-79
2023/05/13 01:42:59;;;;;;;5.88;5.47;;;;;;;;;;4990466;28;101437;-79
2023/05/13 01:45:29;;;;;;;18.48;6.03;;;;;;;;;;4988812;28;101285;-78
2023/05/13 01:47:55;;;;;;;8.68;5.80;;;;;;;;;;5007304;28;101196;-77
2023/05/13 01:50:24;;;;;;;6.28;5.70;;;;;;;;;;5006603;28;101058;-78
2023/05/13 01:52:50;;;;;;;11.45;5.97;;;;;;;;;;4989164;28;101461;-79
2023/05/13 01:55:17;;;;;;;10.82;6.25;;;;;;;;;;4992441;28;101966;-77
2023/05/13 01:57:45;;;;;;;6.55;5.28;;;;;;;;;;4989879;28;101819;-78
2023/05/13 02:00:12;;;;;;;7.53;5.28;;;;;;;;;;5005783;28;102062;-78
2023/05/13 02:02:41;;;;;;;6.20;5.75;;;;;;;;;;5006405;28;98601;-77
2023/05/13 02:05:08;;;;;;;13.57;5.90;;;;;;;;;;5006251;28;101242;-78
2023/05/13 02:07:35;;;;;;;10.52;6.63;;;;;;;;;;5005802;28;100724;-78
2023/05/13 02:10:01;;;;;;;12.55;6.25;;;;;;;;;;5008173;28;98857;-77
2023/05/13 02:12:30;;;;;;;7.75;6.60;;;;;;;;;;4990466;28;101094;-77
2023/05/13 02:14:56;;;;;;;10.38;6.32;;;;;;;;;;4989082;28;102138;-78
2023/05/13 02:17:23;;;;;;;8.25;6.22;;;;;;;;;;4992878;28;99146;-79
2023/05/13 02:19:51;;;;;;;7.60;6.50;;;;;;;;;;5005736;28;100946;-78
2023/05/13 02:22:18;;;;;;;8.45;6.70;;;;;;;;;;5005426;28;99447;-78
2023/05/13 02:24:44;;;;;;;11.38;6.82;;;;;;;;;;4989266;28;101455;-78
2023/05/13 02:27:11;;;;;;;9.32;7.03;;;;;;;;;;5007402;28;99056;-78
2023/05/13 02:29:38;;;;;;;12.75;6.88;;;;;;;;;;4988601;28;100440;-78
2023/05/13 02:32:04;;;;;;;6.95;6.35;;;;;;;;;;5001466;28;100183;-78
2023/05/13 02:34:31;;;;;;;11.13;7.32;;;;;;;;;;5004054;28;99013;-78
2023/05/13 02:36:57;;;;;;;7.75;6.85;;;;;;;;;;5009960;28;99950;-78
2023/05/13 02:39:24;;;;;;;7.43;6.47;;;;;;;;;;5010763;28;98772;-78
2023/05/13 02:41:52;;;;;;;8.88;6.78;;;;;;;;;;5005132;28;99464;-79
2023/05/13 02:44:18;;;;;;;10.85;6.93;;;;;;;;;;5005082;28;101536;-78
2023/05/13 02:46:45;;;;;;;11.75;7.03;;;;;;;;;;5007088;28;99903;-78
2023/05/13 02:49:12;;;;;;;10.63;7.72;;;;;;;;;;5004612;28;100871;-78
2023/05/13 02:51:39;;;;;;;9.77;7.38;;;;;;;;;;4988496;28;99894;-78
2023/05/13 02:54:06;;;;;;;8.88;7.43;;;;;;;;;;5006687;28;100367;-77
2023/05/13 02:56:32;;;;;;;9.13;7.85;;;;;;;;;;4987760;28;101620;-79
2023/05/13 02:58:59;;;;;;;9.70;7.32;;;;;;;;;;5007305;28;99275;-78
2023/05/13 03:01:25;;;;;;;8.68;7.57;;;;;;;;;;4999476;28;99453;-77
2023/05/13 03:03:52;;;;;;;10.20;7.15;;;;;;;;;;4986411;28;99001;-78
2023/05/13 03:06:19;;;;;;;11.45;8.13;;;;;;;;;;4968357;28;99339;-78
2023/05/13 03:08:45;;;;;;;7.57;6.95;;;;;;;;;;4968130;28;99687;-78
2023/05/13 03:11:12;;;;;;;12.43;7.50;;;;;;;;;;4986253;28;99516;-78
2023/05/13 03:13:38;;;;;;;8.55;7.85;;;;;;;;;;4986677;28;99350;-78
2023/05/13 03:16:04;;;;;;;18.70;8.52;;;;;;;;;;4986792;28;99005;-77
2023/05/13 03:18:31;;;;;;;8.80;8.07;;;;;;;;;;4968468;28;101762;-79
2023/05/13 03:20:58;;;;;;;9.60;7.90;;;;;;;;;;4971841;28;99227;-77
2023/05/13 03:23:25;;;;;;;13.07;8.68;;;;;;;;;;4986179;28;99704;-78
2023/05/13 03:25:54;;;;;;;9.65;8.85;;;;;;;;;;4968302;28;99777;-78
2023/05/13 03:28:21;;;;;;;9.68;8.75;;;;;;;;;;4986029;28;99929;-78
2023/05/13 03:30:47;;;;;;;12.57;9.05;;;;;;;;;;4967764;28;101470;-78
2023/05/13 03:33:17;;;;;;;9.55;8.68;;;;;;;;;;4972027;28;101071;-77
2023/05/13 03:35:44;;;;;;;15.98;8.98;;;;;;;;;;4988257;28;101043;-78
2023/05/13 03:38:10;;;;;;;10.20;9.27;;;;;;;;;;4987218;28;101601;-78
2023/05/13 03:40:42;;;;;;;11.88;8.80;;;;;;;;;;4988380;28;100570;-77
2023/05/13 03:43:08;;;;;;;10.77;9.60;;;;;;;;;;4991066;28;99090;-77
2023/05/13 03:45:37;;;;;;;16.52;9.63;;;;;;;;;;5005151;28;99155;-78
2023/05/13 03:48:07;;;;;;;9.60;8.80;;;;;;;;;;4988163;28;100027;-77
2023/05/13 03:50:33;;;;;;;10.88;9.75;;;;;;;;;;5006029;28;99147;-77
2023/05/13 03:53:00;;;;;;;14.10;10.27;;;;;;;;;;4987027;28;101515;-76
2023/05/13 03:55:27;;;;;;;13.50;9.75;;;;;;;;;;4987186;28;100089;-78
2023/05/13 03:57:54;;;;;;;12.60;9.73;;;;;;;;;;5005759;28;99261;-78
2023/05/13 04:00:20;;;;;;;16.98;9.93;;;;;;;;;;4986129;28;99276;-78
2023/05/13 04:02:47;;;;;;;13.45;9.90;;;;;;;;;;5001968;28;99833;-77
2023/05/13 04:05:14;;;;;;;11.20;10.00;;;;;;;;;;4989522;28;99128;-77
2023/05/13 04:07:40;;;;;;;13.40;10.43;;;;;;;;;;4986929;28;100147;-78
2023/05/13 04:10:07;;;;;;;12.02;10.85;;;;;;;;;;5005880;28;99111;-78
2023/05/13 04:12:34;;;;;;;15.07;10.20;;;;;;;;;;5005943;28;99287;-78
2023/05/13 04:15:00;;;;;;;11.93;10.73;;;;;;;;;;4986950;28;100951;-77
2023/05/13 04:17:27;;;;;;;12.27;10.85;;;;;;;;;;5005191;28;99248;-78
2023/05/13 04:19:54;;;;;;;14.07;11.15;;;;;;;;;;4986936;28;101943;-79
2023/05/13 04:22:21;;;;;;;13.05;11.10;;;;;;;;;;5004532;28;100372;-76
2023/05/13 04:24:50;;;;;;;13.52;10.95;;;;;;;;;;5005470;28;100577;-78
2023/05/13 04:27:17;;;;;;;12.85;11.10;;;;;;;;;;4989729;28;100139;-78
2023/05/13 04:29:44;;;;;;;12.27;10.90;;;;;;;;;;4987345;28;100266;-78
2023/05/13 04:32:14;;;;;;;14.43;11.57;;;;;;;;;;4970280;28;99806;-77
2023/05/13 04:34:41;;;;;;;12.70;11.35;;;;;;;;;;4966389;28;100739;-77
2023/05/13 04:37:08;;;;;;;15.10;12.07;;;;;;;;;;4967364;28;102086;-77
2023/05/13 04:39:34;;;;;;;11.85;10.73;;;;;;;;;;4985605;28;98772;-78
2023/05/13 04:42:01;;;;;;;12.35;11.23;;;;;;;;;;4984774;28;98973;-77
2023/05/13 04:44:29;;;;;;;15.02;11.07;;;;;;;;;;4967373;28;100081;-76
2023/05/13 04:46:56;;;;;;;12.90;10.93;;;;;;;;;;4966811;28;102148;-77
2023/05/13 04:49:23;;;;;;;12.48;11.18;;;;;;;;;;4987930;28;100086;-77
2023/05/13 04:51:50;;;;;;;12.30;11.00;;;;;;;;;;4967639;28;100288;-78
2023/05/13 04:54:17;;;;;;;11.88;10.70;;;;;;;;;;4966252;28;99660;-78
2023/05/13 04:56:44;;;;;;;11.93;10.68;;;;;;;;;;4966408;28;99363;-78
2023/05/13 04:59:10;;;;;;;11.15;10.00;;;;;;;;;;4967066;28;101012;-77
2023/05/13 05:01:39;;;;;;;11.55;10.55;;;;;;;;;;4967520;28;98895;-78
2023/05/13 05:04:05;;;;;;;14.75;9.65;;;;;;;;;;4984866;28;99189;-78
2023/05/13 05:06:34;;;;;;;14.85;10.82;;;;;;;;;;4967049;28;100312;-77
2023/05/13 05:09:00;;;;;;;17.38;9.95;;;;;;;;;;4966547;28;101451;-76
2023/05/13 05:11:27;;;;;;;12.15;10.95;;;;;;;;;;4970025;28;99311;-77
2023/05/13 05:13:54;;;;;;;13.20;10.13;;;;;;;;;;4966850;28;102029;-78
2023/05/13 05:16:22;;;;;;;17.92;10.55;;;;;;;;;;4965823;28;101923;-77
2023/05/13 05:18:49;;;;;;;12.85;10.10;;;;;;;;;;4967056;28;101433;-77
2023/05/13 05:21:17;;;;;;;10.52;9.52;;;;;;;;;;4966846;28;100042;-78
2023/05/13 05:23:44;;;;;;;13.35;10.32;;;;;;;;;;4966095;28;99130;-78
2023/05/13 05:26:11;;;;;;;12.88;10.20;;;;;;;;;;4966896;28;101509;-77
2023/05/13 05:28:41;;;;;;;15.50;10.20;;;;;;;;;;4966978;28;100851;-78
2023/05/13 05:31:08;;;;;;;14.45;9.88;;;;;;;;;;4969769;28;100638;-78
2023/05/13 05:33:35;;;;;;;10.50;9.40;;;;;;;;;;4978693;28;100185;-78
2023/05/13 05:36:02;;;;;;;10.02;8.88;;;;;;;;;;4985714;28;100636;-78
2023/05/13 05:38:28;;;;;;;11.18;10.07;;;;;;;;;;4985110;28;101018;-78
2023/05/13 05:40:56;;;;;;;12.98;9.98;;;;;;;;;;4986341;28;101155;-77
2023/05/13 05:43:23;;;;;;;10.77;9.68;;;;;;;;;;4986001;28;101341;-77
2023/05/13 05:45:50;;;;;;;12.52;10.05;;;;;;;;;;4985554;28;101869;-78
2023/05/13 05:48:18;;;;;;;19.88;9.10;;;;;;;;;;4986184;28;101382;-78
2023/05/13 05:50:46;;;;;;;12.65;9.85;;;;;;;;;;4986361;28;101461;-77
2023/05/13 05:53:16;;;;;;;12.27;9.10;;;;;;;;;;5007177;28;99396;-78
2023/05/13 05:55:43;;;;;;;11.10;10.00;;;;;;;;;;4986082;28;100632;-79
2023/05/13 05:58:13;;;;;;;14.75;10.27;;;;;;;;;;4986797;28;102110;-79
2023/05/13 06:00:39;;;;;;;14.25;10.25;;;;;;;;;;5002571;28;100038;-78
2023/05/13 06:03:06;;;;;;;13.52;9.95;;;;;;;;;;4985575;28;102741;-79
2023/05/13 06:05:34;;;;;;;13.65;9.15;;;;;;;;;;4983181;28;99313;-78
2023/05/13 06:08:00;;;;;;;15.75;10.40;;;;;;;;;;4987660;28;98843;-78
2023/05/13 06:10:28;;;;;;;15.18;10.85;;;;;;;;;;4969523;28;100722;-78
2023/05/13 06:12:55;;;;;;;10.98;9.85;;;;;;;;;;4987236;28;99275;-78
2023/05/13 06:15:21;;;;;;;9.32;8.35;;;;;;;;;;4972634;28;99871;-79
2023/05/13 06:17:48;;;;;;;12.57;10.32;;;;;;;;;;4986898;28;98705;-77
2023/05/13 06:20:14;;;;;;;11.20;10.10;;;;;;;;;;4968829;28;98880;-76
2023/05/13 06:22:41;;;;;;;12.35;9.88;;;;;;;;;;4987377;28;99961;-77
2023/05/13 06:25:07;;;;;;;11.27;9.63;;;;;;;;;;4986592;28;100397;-77
2023/05/13 06:27:35;;;;;;;12.75;9.85;;;;;;;;;;4985489;28;98937;-77
2023/05/13 06:30:01;;;;;;;13.73;9.20;;;;;;;;;;4989561;28;98819;-77
2023/05/13 06:32:28;;;;;;;11.45;8.75;;;;;;;;;;5006992;28;100213;-77
2023/05/13 06:34:54;;;;;;;15.48;9.38;;;;;;;;;;5006590;28;98936;-77
2023/05/13 06:37:22;;;;;;;11.63;7.88;;;;;;;;;;4992244;28;101929;-78
2023/05/13 06:39:48;;;;;;;8.85;8.02;;;;;;;;;;4989088;28;101612;-78
2023/05/13 06:42:17;;;;;;;10.27;7.85;;;;;;;;;;5006719;28;100465;-77
2023/05/13 06:44:51;;;;;;;10.85;7.53;;;;;;;;;;4989127;28;101583;-77
2023/05/13 06:47:24;;;;;;;8.60;7.70;;;;;;;;;;4989258;28;99865;-78
2023/05/13 06:49:50;;;;;;;11.65;7.53;;;;;;;;;;5005230;28;99404;-78
2023/05/13 06:52:17;;;;;;;8.98;7.82;;;;;;;;;;4988024;28;101370;-77
2023/05/13 06:54:43;;;;;;;8.25;7.45;;;;;;;;;;5005300;28;100173;-78
2023/05/13 06:57:11;;;;;;;9.70;6.90;;;;;;;;;;5006600;28;99317;-77
2023/05/13 06:59:37;;;;;;;8.07;6.85;;;;;;;;;;5009860;28;100272;-78
2023/05/13 07:02:03;;;;;;;8.63;6.78;;;;;;;;;;5006336;28;99151;-77
2023/05/13 07:04:30;;;;;;;9.32;6.65;;;;;;;;;;5006636;28;100470;-77
2023/05/13 07:06:56;;;;;;;9.68;6.22;;;;;;;;;;5006928;28;99064;-77
2023/05/13 07:09:23;;;;;;;9.38;6.63;;;;;;;;;;5005682;28;99150;-78
2023/05/13 07:11:49;;;;;;;8.50;6.82;;;;;;;;;;5006540;28;100265;-79
2023/05/13 07:14:16;;;;;;;8.77;7.18;;;;;;;;;;5005534;28;100010;-79
2023/05/13 07:16:42;;;;;;;11.18;6.75;;;;;;;;;;5005679;28;100797;-78
2023/05/13 07:19:09;;;;;;;10.43;6.72;;;;;;;;;;5006154;28;100166;-77
2023/05/13 07:21:36;;;;;;;10.98;6.40;;;;;;;;;;5009115;28;98572;-78
2023/05/13 07:24:04;;;;;;;7.50;6.13;;;;;;;;;;5003748;28;99605;-78
2023/05/13 07:26:31;;;;;;;11.15;6.28;;;;;;;;;;5006216;28;99997;-79
2023/05/13 07:28:58;;;;;;;8.93;6.38;;;;;;;;;;5006261;28;100009;-78
2023/05/13 07:31:24;;;;;;;11.18;6.50;;;;;;;;;;5005352;28;99622;-78
2023/05/13 07:33:51;;;;;;;9.38;6.55;;;;;;;;;;5006051;28;100094;-78
2023/05/13 07:36:17;;;;;;;9.95;5.93;;;;;;;;;;5006024;28;100372;-78
2023/05/13 07:38:44;;;;;;;10.93;6.43;;;;;;;;;;5004886;28;100838;-78
2023/05/13 07:41:10;;;;;;;8.60;6.00;;;;;;;;;;5009693;28;99886;-78
2023/05/13 07:43:39;;;;;;;6.80;6.13;;;;;;;;;;5006006;28;100547;-77
2023/05/13 07:46:05;;;;;;;6.53;5.75;;;;;;;;;;5006274;28;99236;-78
2023/05/13 07:48:32;;;;;;;8.82;6.05;;;;;;;;;;5005439;28;99056;-77
2023/05/13 07:50:58;;;;;;;10.02;6.53;;;;;;;;;;5004784;28;99646;-78
2023/05/13 07:53:25;;;;;;;9.50;6.22;;;;;;;;;;5004995;28;99498;-78
2023/05/13 07:55:52;;;;;;;10.27;6.28;;;;;;;;;;5015127;28;100265;-78
2023/05/13 07:58:19;;;;;;;8.93;5.97;;;;;;;;;;5006851;28;100354;-77
2023/05/13 08:00:45;;;;;;;10.40;6.28;;;;;;;;;;5025937;28;99854;-78
2023/05/13 08:03:11;;;;;;;9.15;5.72;;;;;;;;;;5027591;28;99416;-78
2023/05/13 08:05:38;;;;;;;9.80;6.15;;;;;;;;;;5024800;28;100336;-78
2023/05/13 08:08:04;;;;;;;8.90;5.95;;;;;;;;;;5025651;28;99840;-78
2023/05/13 08:10:31;;;;;;;8.70;6.18;;;;;;;;;;5024692;28;99540;-79
2023/05/13 08:12:59;;;;;;;8.02;5.35;;;;;;;;;;5025041;28;100373;-78
2023/05/13 08:15:26;;;;;;;7.40;5.60;;;;;;;;;;5024705;28;99210;-78
2023/05/13 08:17:53;;;;;;;7.88;5.43;;;;;;;;;;5025394;28;99807;-78
2023/05/13 08:20:21;;;;;;;7.80;5.55;;;;;;;;;;5024548;28;99240;-79
2023/05/13 08:22:48;;;;;;;6.05;5.47;;;;;;;;;;5025527;28;99280;-78
2023/05/13 08:25:14;;;;;;;9.88;5.40;;;;;;;;;;5027965;28;100371;-78
2023/05/13 08:27:41;;;;;;;13.38;6.22;;;;;;;;;;5023550;28;99735;-78
2023/05/13 08:30:07;;;;;;;17.58;6.43;;;;;;;;;;5021629;28;100833;-79
2023/05/13 08:32:34;;;;;;;6.35;5.75;;;;;;;;;;5004958;28;99111;-78
2023/05/13 08:35:00;;;;;;;6.03;5.45;;;;;;;;;;5004136;28;99368;-78
2023/05/13 08:37:27;;;;;;;6.85;5.90;;;;;;;;;;5005162;28;100443;-78
2023/05/13 08:39:55;;;;;;;9.90;6.20;;;;;;;;;;5005114;28;99039;-79
2023/05/13 08:42:21;;;;;;;9.00;6.60;;;;;;;;;;5004257;28;100068;-79
2023/05/13 08:44:48;;;;;;;6.60;5.30;;;;;;;;;;5005621;28;99659;-78
2023/05/13 08:47:20;;;;;;;9.27;5.68;;;;;;;;;;5007720;28;100080;-78
2023/05/13 08:49:47;;;;;;;10.68;5.88;;;;;;;;;;5004794;28;99537;-78
2023/05/13 08:52:13;;;;;;;8.95;6.32;;;;;;;;;;5004695;28;100206;-80
2023/05/13 08:54:42;;;;;;;8.00;6.38;;;;;;;;;;5015167;28;99855;-79
2023/05/13 08:57:08;;;;;;;9.45;6.00;;;;;;;;;;5023582;28;99991;-78
2023/05/13 08:59:34;;;;;;;12.13;5.85;;;;;;;;;;5024683;28;99960;-78
2023/05/13 09:02:03;;;;;;;6.18;5.70;;;;;;;;;;5024391;28;100328;-78
2023/05/13 09:04:29;;;;;;;7.20;6.47;;;;;;;;;;5024741;28;100133;-77
2023/05/13 09:06:56;;;;;;;9.50;6.28;;;;;;;;;;5025047;28;100223;-78
2023/05/13 09:09:23;;;;;;;6.90;5.82;;;;;;;;;;5027830;28;99896;-78
2023/05/13 09:11:49;;;;;;;6.53;5.90;;;;;;;;;;5023091;28;98897;-79
2023/05/13 09:14:18;;;;;;;9.85;5.60;;;;;;;;;;5024604;28;99899;-79
2023/05/13 09:16:46;;;;;;;10.45;6.75;;;;;;;;;;5023395;28;101114;-78
2023/05/13 09:19:12;;;;;;;10.30;7.03;;;;;;;;;;5024135;28;99199;-79
2023/05/13 09:21:39;;;;;;;6.63;6.07;;;;;;;;;;5024421;28;99859;-79
2023/05/13 09:24:07;;;;;;;9.48;5.93;;;;;;;;;;5023519;28;100009;-78
2023/05/13 09:26:38;;;;;;;9.93;5.75;;;;;;;;;;5024471;28;100046;-78
2023/05/13 09:29:14;;;;;;;12.85;5.85;;;;;;;;;;5028220;28;99016;-78
2023/05/13 09:31:41;;;;;;;6.32;5.70;;;;;;;;;;5023987;28;99153;-77
2023/05/13 09:34:08;;;;;;;8.00;5.88;;;;;;;;;;5025129;28;100036;-78
2023/05/13 09:36:34;;;;;;;13.48;5.97;;;;;;;;;;5023555;28;100193;-78
2023/05/13 09:39:02;;;;;;;11.10;6.25;;;;;;;;;;5024336;28;100219;-78
2023/05/13 09:41:31;;;;;;;6.72;5.85;;;;;;;;;;5020121;28;99320;-79
2023/05/13 09:44:00;;;;;;;11.13;6.32;;;;;;;;;;5006837;28;100146;-79
2023/05/13 09:46:26;;;;;;;7.10;6.13;;;;;;;;;;5007494;28;99869;-78
2023/05/13 09:48:56;;;;;;;11.05;6.28;;;;;;;;;;5006425;28;99100;-78
2023/05/13 09:51:27;;;;;;;11.27;6.07;;;;;;;;;;5009990;28;100258;-78
2023/05/13 09:53:54;;;;;;;9.27;6.07;;;;;;;;;;5007475;28;99298;-78
2023/05/13 09:56:22;;;;;;;10.45;6.97;;;;;;;;;;5007011;28;100530;-79
2023/05/13 09:58:51;;;;;;;7.20;6.05;;;;;;;;;;5006993;28;99236;-78
2023/05/13 10:01:19;;;;;;;8.85;6.78;;;;;;;;;;5006723;28;99147;-79
2023/05/13 10:03:45;;;;;;;8.95;6.05;;;;;;;;;;5007519;28;100440;-78
2023/05/13 10:06:14;;;;;;;11.43;5.90;;;;;;;;;;5005569;28;99635;-77
2023/05/13 10:08:41;;;;;;;5.40;4.97;;;;;;;;;;5007381;28;100647;-79
2023/05/13 10:11:09;;;;;;;8.80;6.45;;;;;;;;;;5002158;28;100263;-79
2023/05/13 10:13:37;;;;;;;9.35;6.00;;;;;;;;;;4989299;28;99137;-78
2023/05/13 10:16:03;;;;;;;6.85;6.00;;;;;;;;;;5006175;28;100298;-78
2023/05/13 10:18:30;;;;;;;9.63;6.45;;;;;;;;;;5004573;28;99527;-78
2023/05/13 10:20:56;;;;;;;11.38;6.57;;;;;;;;;;5006860;28;99027;-80
2023/05/13 10:23:23;;;;;;;6.97;5.90;;;;;;;;;;5007423;28;99734;-80
2023/05/13 10:25:51;;;;;;;11.63;7.28;;;;;;;;;;5006169;28;99679;-78
2023/05/13 10:28:18;;;;;;;10.90;6.30;;;;;;;;;;5007207;28;100213;-78
2023/05/13 10:30:45;;;;;;;8.48;6.05;;;;;;;;;;5005892;28;103454;-78
2023/05/13 10:33:12;;;;;;;11.15;6.22;;;;;;;;;;5005742;28;98996;-78
2023/05/13 10:35:41;;;;;;;9.65;6.55;;;;;;;;;;5009574;28;98975;-80
2023/05/13 10:38:15;;;;;;;11.45;6.30;;;;;;;;;;5006436;28;98991;-78
2023/05/13 10:41:08;;;;;;;6.20;5.25;;;;;;;;;;5006458;28;99917;-80
2023/05/13 10:43:35;;;;;;;13.45;5.45;;;;;;;;;;5006725;28;100249;-80
2023/05/13 10:46:03;;;;;;;9.00;5.75;;;;;;;;;;5007045;28;99524;-79
2023/05/13 10:48:40;;;;;;;11.40;5.18;;;;;;;;;;5006337;28;99475;-79
2023/05/13 10:51:07;;;;;;;6.13;4.95;;;;;;;;;;5006813;28;99607;-78
2023/05/13 10:53:45;;;;;;;6.65;5.82;;;;;;;;;;5005656;28;100458;-79
2023/05/13 10:56:12;;;;;;;9.57;4.90;;;;;;;;;;5004297;28;100108;-77
2023/05/13 10:58:38;;;;;;;6.70;4.95;;;;;;;;;;4996289;28;100580;-78
2023/05/13 11:01:13;;;;;;;6.78;5.20;;;;;;;;;;4986419;28;99880;-79
2023/05/13 11:03:39;;;;;;;12.73;5.25;;;;;;;;;;4986294;28;99150;-78
2023/05/13 11:06:06;;;;;;;7.13;5.15;;;;;;;;;;4991746;28;99863;-80
2023/05/13 11:08:36;;;;;;;6.88;5.00;;;;;;;;;;4986138;28;100311;-79
2023/05/13 11:11:15;;;;;;;7.05;4.72;;;;;;;;;;4987251;28;99554;-78
2023/05/13 11:13:42;;;;;;;11.00;4.97;;;;;;;;;;4987357;28;100007;-78
2023/05/13 11:16:11;;;;;;;6.97;4.50;;;;;;;;;;4986317;28;99411;-78
2023/05/13 11:18:38;;;;;;;7.50;4.32;;;;;;;;;;4986774;28;99944;-78
2023/05/13 11:21:05;;;;;;;10.05;5.18;;;;;;;;;;4990063;28;100824;-80
2023/05/13 11:23:50;;;;;;;7.38;4.95;;;;;;;;;;4985637;28;100783;-78
2023/05/13 11:26:17;;;;;;;9.75;4.35;;;;;;;;;;4985926;28;99400;-79
2023/05/13 11:28:54;;;;;;;5.30;4.32;;;;;;;;;;4985812;28;99068;-77
2023/05/13 11:31:21;;;;;;;10.30;4.38;;;;;;;;;;4985924;28;100447;-79
2023/05/13 11:34:08;;;;;;;5.75;4.30;;;;;;;;;;4985785;28;98876;-79
2023/05/13 11:36:44;;;;;;;8.18;4.70;;;;;;;;;;4984763;28;99161;-79
2023/05/13 11:39:12;;;;;;;7.13;4.22;;;;;;;;;;4986637;28;99534;-79
2023/05/13 11:41:40;;;;;;;5.78;3.95;;;;;;;;;;4988799;28;99329;-79
2023/05/13 11:44:06;;;;;;;5.55;4.75;;;;;;;;;;4999207;28;99984;-79
2023/05/13 11:46:33;;;;;;;9.05;4.20;;;;;;;;;;5005587;28;100240;-79
2023/05/13 11:49:00;;;;;;;3.97;3.70;;;;;;;;;;5005544;28;99758;-79
2023/05/13 11:51:27;;;;;;;8.73;3.47;;;;;;;;;;5004867;28;99011;-79
2023/05/13 11:54:00;;;;;;;11.90;4.15;;;;;;;;;;5005763;28;100143;-80
2023/05/13 11:56:27;;;;;;;6.07;3.90;;;;;;;;;;5005384;28;100052;-79
2023/05/13 11:58:54;;;;;;;6.15;3.70;;;;;;;;;;5005095;28;100216;-80
2023/05/13 12:01:20;;;;;;;13.10;3.35;;;;;;;;;;5003705;28;100142;-78
2023/05/13 12:03:47;;;;;;;9.27;3.05;;;;;;;;;;5008421;28;99209;-79
2023/05/13 12:06:14;;;;;;;9.82;3.40;;;;;;;;;;5005268;28;100059;-79
2023/05/13 12:08:45;;;;;;;6.60;3.40;;;;;;;;;;5005768;28;100039;-79
2023/05/13 12:11:12;;;;;;;9.30;3.33;;;;;;;;;;5004603;28;101467;-80
2023/05/13 12:13:39;;;;;;;7.65;3.88;;;;;;;;;;5005567;28;100577;-79
2023/05/13 12:16:06;;;;;;;7.82;3.03;;;;;;;;;;5005470;28;100058;-79
2023/05/13 12:18:33;;;;;;;7.53;3.15;;;;;;;;;;5005184;28;100700;-78
2023/05/13 12:21:11;;;;;;;4.35;3.38;;;;;;;;;;4995168;28;99854;-81
2023/05/13 12:23:39;;;;;;;4.07;2.95;;;;;;;;;;4985013;28;99195;-80
2023/05/13 12:26:06;;;;;;;8.00;3.22;;;;;;;;;;4988007;28;100206;-79
2023/05/13 12:28:33;;;;;;;3.92;3.00;;;;;;;;;;4985949;28;100218;-80
2023/05/13 12:31:00;;;;;;;2.67;2.47;;;;;;;;;;4984573;28;99453;-79
2023/05/13 12:33:27;;;;;;;4.05;2.50;;;;;;;;;;4983434;28;99100;-80
2023/05/13 12:36:13;;;;;;;6.60;2.85;;;;;;;;;;4984961;28;99925;-80
2023/05/13 12:38:53;;;;;;;3.05;2.85;;;;;;;;;;4985053;28;100688;-80
2023/05/13 12:41:20;;;;;;;3.03;2.53;;;;;;;;;;4967160;28;98927;-78
2023/05/13 12:43:46;;;;;;;4.32;2.45;;;;;;;;;;4984569;28;99324;-78
2023/05/13 12:46:13;;;;;;;7.32;2.95;;;;;;;;;;4985708;28;100138;-78
2023/05/13 12:48:39;;;;;;;6.57;2.60;;;;;;;;;;4989436;28;99277;-79
2023/05/13 12:51:05;;;;;;;3.72;2.55;;;;;;;;;;4985248;28;100535;-80
2023/05/13 12:53:32;;;;;;;9.02;2.95;;;;;;;;;;4985037;28;100005;-75
2023/05/13 12:55:58;;;;;;;5.38;2.85;;;;;;;;;;4984266;28;98638;-79
2023/05/13 12:58:25;;;;;;;6.95;2.85;;;;;;;;;;4984893;28;100263;-80
2023/05/13 13:00:51;;;;;;;3.95;2.97;;;;;;;;;;4983228;28;99960;-79
2023/05/13 13:03:17;;;;;;;6.93;3.00;;;;;;;;;;4985185;28;100853;-80
2023/05/13 13:05:47;;;;;;;3.53;2.60;;;;;;;;;;4985144;28;100734;-80
2023/05/13 13:08:14;;;;;;;12.25;3.40;;;;;;;;;;4983798;28;99063;-80
2023/05/13 13:10:41;;;;;;;20.02;4.10;;;;;;;;;;4988492;28;100021;-78
2023/05/13 13:13:09;;;;;;;3.38;3.17;;;;;;;;;;4985116;28;99164;-79
2023/05/13 13:15:36;;;;;;;4.63;2.92;;;;;;;;;;4982546;28;98768;-78
2023/05/13 13:18:02;;;;;;;7.68;3.00;;;;;;;;;;4985728;28;99352;-78
2023/05/13 13:20:29;;;;;;;6.35;3.55;;;;;;;;;;4992267;28;101297;-78
2023/05/13 13:22:56;;;;;;;6.15;3.20;;;;;;;;;;5005106;28;99338;-79
2023/05/13 13:25:22;;;;;;;4.65;2.72;;;;;;;;;;4987017;28;100251;-80
2023/05/13 13:27:49;;;;;;;4.45;2.88;;;;;;;;;;5006022;28;100166;-79
2023/05/13 13:30:16;;;;;;;3.47;3.15;;;;;;;;;;5005296;28;98948;-77
2023/05/13 13:32:43;;;;;;;10.23;2.83;;;;;;;;;;5009257;28;98590;-79
2023/05/13 13:35:10;;;;;;;2.75;2.42;;;;;;;;;;5006536;28;100512;-78
2023/05/13 13:37:36;;;;;;;3.10;2.50;;;;;;;;;;5003610;28;100514;-79
2023/05/13 13:40:03;;;;;;;7.18;2.70;;;;;;;;;;5003612;28;99948;-78
2023/05/13 13:42:30;;;;;;;3.30;3.00;;;;;;;;;;5003888;28;99951;-79
2023/05/13 13:45:10;;;;;;;6.75;3.25;;;;;;;;;;5004467;28;100742;-78
2023/05/13 13:47:37;;;;;;;3.08;2.33;;;;;;;;;;5004134;28;100186;-78
2023/05/13 13:50:03;;;;;;;4.75;2.83;;;;;;;;;;5003171;28;99304;-79
2023/05/13 13:52:30;;;;;;;3.15;2.95;;;;;;;;;;5006675;28;99538;-79
2023/05/13 13:54:56;;;;;;;6.10;2.53;;;;;;;;;;5004584;28;99431;-80
2023/05/13 13:57:23;;;;;;;5.70;2.25;;;;;;;;;;5022541;28;99605;-80
2023/05/13 13:59:49;;;;;;;6.75;2.47;;;;;;;;;;5024110;28;100224;-79
2023/05/13 14:02:16;;;;;;;4.28;2.60;;;;;;;;;;5023881;28;100218;-80
2023/05/13 14:04:42;;;;;;;9.02;2.67;;;;;;;;;;5023441;28;100422;-80
2023/05/13 14:07:08;;;;;;;4.85;2.65;;;;;;;;;;5022906;28;99530;-79
2023/05/13 14:09:35;;;;;;;6.90;2.60;;;;;;;;;;5023626;28;99546;-79
2023/05/13 14:12:01;;;;;;;6.55;2.30;;;;;;;;;;5022284;28;99366;-79
2023/05/13 14:14:27;;;;;;;7.13;2.63;;;;;;;;;;5026803;28;100444;-79
2023/05/13 14:16:54;;;;;;;9.00;2.95;;;;;;;;;;5024047;28;100226;-81
2023/05/13 14:19:20;;;;;;;4.13;2.25;;;;;;;;;;5022312;28;98934;-80
2023/05/13 14:21:46;;;;;;;2.85;2.42;;;;;;;;;;5023726;28;100302;-79
2023/05/13 14:24:13;;;;;;;3.22;2.65;;;;;;;;;;5023912;28;100191;-80
2023/05/13 14:26:39;;;;;;;3.03;2.42;;;;;;;;;;5021885;27;99408;-80
2023/05/13 14:29:05;;;;;;;2.55;2.38;;;;;;;;;;5025603;28;99107;-79
2023/05/13 14:31:32;;;;;;;2.58;2.38;;;;;;;;;;5027410;28;99398;-79
2023/05/13 14:33:58;;;;;;;4.05;3.20;;;;;;;;;;5026250;28;100205;-79